TRX weather

Teras Airport
Cajeme, Sonora, Mexico

Public forecast

Using degrees Celsius for public forecast. Weather courtesy of forecast.io.

METAR (pilot weather report)

Closest report is Ciudad Obregón International Airport, 13.4 nm (24.9 km) NE. Retrieved 2019/06/26 00:42 UTC (21 minutes ago):

MMCN 260042Z 22008KT 10SM SKC 34/05 A2975 RMK HZY

TAF (pilot weather forecast)

Forecast is more than 6 hours old.

Closest forecast is Ciudad Obregón International Airport, 13.4 nm (24.9 km) NE. Retrieved 2019/06/25 18:47 UTC (6 hours ago):

TAF MMCN 251643Z 2518/2618 25006KT P6SM SKC FM261200 14008KT P6SM SCT120 SCT260